sensor_id;sensor_type;location;lat;lon;timestamp;P1;durP1;ratioP1;P2;durP2;ratioP2
5458;SDS011;2752;49.992;8.422;2022-09-24T00:01:06;12.47;;;6.30;;
5458;SDS011;2752;49.992;8.422;2022-09-24T00:03:33;8.37;;;5.43;;
5458;SDS011;2752;49.992;8.422;2022-09-24T00:06:00;12.27;;;6.20;;
5458;SDS011;2752;49.992;8.422;2022-09-24T00:08:29;13.60;;;5.93;;
5458;SDS011;2752;49.992;8.422;2022-09-24T00:10:59;13.07;;;5.83;;
5458;SDS011;2752;49.992;8.422;2022-09-24T00:13:26;8.07;;;5.47;;
5458;SDS011;2752;49.992;8.422;2022-09-24T00:15:54;9.07;;;5.67;;
5458;SDS011;2752;49.992;8.422;2022-09-24T00:18:20;12.10;;;6.13;;
5458;SDS011;2752;49.992;8.422;2022-09-24T00:20:47;8.80;;;6.13;;
5458;SDS011;2752;49.992;8.422;2022-09-24T00:23:14;9.27;;;5.60;;
5458;SDS011;2752;49.992;8.422;2022-09-24T00:25:42;11.73;;;6.63;;
5458;SDS011;2752;49.992;8.422;2022-09-24T00:28:27;19.93;;;6.67;;
5458;SDS011;2752;49.992;8.422;2022-09-24T00:30:55;10.00;;;6.03;;
5458;SDS011;2752;49.992;8.422;2022-09-24T00:33:23;16.53;;;5.73;;
5458;SDS011;2752;49.992;8.422;2022-09-24T00:35:50;11.03;;;6.30;;
5458;SDS011;2752;49.992;8.422;2022-09-24T00:38:17;11.50;;;6.10;;
5458;SDS011;2752;49.992;8.422;2022-09-24T00:40:45;9.93;;;5.83;;
5458;SDS011;2752;49.992;8.422;2022-09-24T00:46:01;8.57;;;6.00;;
5458;SDS011;2752;49.992;8.422;2022-09-24T00:48:38;11.90;;;6.17;;
5458;SDS011;2752;49.992;8.422;2022-09-24T00:51:05;13.17;;;6.70;;
5458;SDS011;2752;49.992;8.422;2022-09-24T00:53:34;15.70;;;7.07;;
5458;SDS011;2752;49.992;8.422;2022-09-24T00:56:02;11.70;;;6.53;;
5458;SDS011;2752;49.992;8.422;2022-09-24T00:58:31;17.30;;;6.27;;
5458;SDS011;2752;49.992;8.422;2022-09-24T01:01:00;12.37;;;6.80;;
5458;SDS011;2752;49.992;8.422;2022-09-24T01:03:31;14.73;;;7.30;;
5458;SDS011;2752;49.992;8.422;2022-09-24T01:05:59;13.20;;;7.37;;
5458;SDS011;2752;49.992;8.422;2022-09-24T01:08:26;11.93;;;7.03;;
5458;SDS011;2752;49.992;8.422;2022-09-24T01:10:57;11.27;;;6.80;;
5458;SDS011;2752;49.992;8.422;2022-09-24T01:13:43;19.50;;;6.80;;
5458;SDS011;2752;49.992;8.422;2022-09-24T01:16:23;15.47;;;7.83;;
5458;SDS011;2752;49.992;8.422;2022-09-24T01:18:59;13.83;;;7.57;;
5458;SDS011;2752;49.992;8.422;2022-09-24T01:21:40;9.20;;;6.80;;
5458;SDS011;2752;49.992;8.422;2022-09-24T01:27:05;14.13;;;7.67;;
5458;SDS011;2752;49.992;8.422;2022-09-24T01:29:43;13.70;;;6.27;;
5458;SDS011;2752;49.992;8.422;2022-09-24T01:32:18;14.67;;;7.73;;
5458;SDS011;2752;49.992;8.422;2022-09-24T01:34:51;16.97;;;7.43;;
5458;SDS011;2752;49.992;8.422;2022-09-24T01:37:22;13.00;;;7.70;;
5458;SDS011;2752;49.992;8.422;2022-09-24T01:39:52;12.97;;;7.17;;
5458;SDS011;2752;49.992;8.422;2022-09-24T01:42:21;14.50;;;6.33;;
5458;SDS011;2752;49.992;8.422;2022-09-24T01:44:52;11.37;;;7.20;;
5458;SDS011;2752;49.992;8.422;2022-09-24T01:47:22;13.77;;;6.87;;
5458;SDS011;2752;49.992;8.422;2022-09-24T01:49:54;11.63;;;6.77;;
5458;SDS011;2752;49.992;8.422;2022-09-24T01:52:22;30.53;;;6.27;;
5458;SDS011;2752;49.992;8.422;2022-09-24T01:54:53;15.10;;;7.27;;
5458;SDS011;2752;49.992;8.422;2022-09-24T01:57:23;8.33;;;6.47;;
5458;SDS011;2752;49.992;8.422;2022-09-24T01:59:56;10.40;;;6.30;;
5458;SDS011;2752;49.992;8.422;2022-09-24T02:02:27;8.50;;;6.40;;
5458;SDS011;2752;49.992;8.422;2022-09-24T02:05:01;12.37;;;6.27;;
5458;SDS011;2752;49.992;8.422;2022-09-24T02:07:33;10.60;;;6.80;;
5458;SDS011;2752;49.992;8.422;2022-09-24T02:10:03;14.07;;;7.23;;
5458;SDS011;2752;49.992;8.422;2022-09-24T02:12:31;14.70;;;7.10;;
5458;SDS011;2752;49.992;8.422;2022-09-24T02:15:08;14.00;;;6.70;;
5458;SDS011;2752;49.992;8.422;2022-09-24T02:17:37;11.83;;;7.30;;
5458;SDS011;2752;49.992;8.422;2022-09-24T02:20:08;11.13;;;7.00;;
5458;SDS011;2752;49.992;8.422;2022-09-24T02:22:40;15.20;;;6.20;;
5458;SDS011;2752;49.992;8.422;2022-09-24T02:25:09;10.20;;;6.03;;
5458;SDS011;2752;49.992;8.422;2022-09-24T02:27:41;12.00;;;6.87;;
5458;SDS011;2752;49.992;8.422;2022-09-24T02:30:10;10.67;;;6.20;;
5458;SDS011;2752;49.992;8.422;2022-09-24T02:32:38;15.07;;;7.10;;
5458;SDS011;2752;49.992;8.422;2022-09-24T02:35:07;15.57;;;7.17;;
5458;SDS011;2752;49.992;8.422;2022-09-24T02:37:35;8.97;;;5.90;;
5458;SDS011;2752;49.992;8.422;2022-09-24T02:40:03;13.47;;;6.27;;
5458;SDS011;2752;49.992;8.422;2022-09-24T02:42:32;15.27;;;7.60;;
5458;SDS011;2752;49.992;8.422;2022-09-24T02:44:58;9.90;;;6.47;;
5458;SDS011;2752;49.992;8.422;2022-09-24T02:47:27;10.70;;;6.80;;
5458;SDS011;2752;49.992;8.422;2022-09-24T02:49:54;12.50;;;6.93;;
5458;SDS011;2752;49.992;8.422;2022-09-24T02:52:21;23.07;;;7.03;;
5458;SDS011;2752;49.992;8.422;2022-09-24T02:54:47;12.57;;;7.30;;
5458;SDS011;2752;49.992;8.422;2022-09-24T02:57:15;13.30;;;7.53;;
5458;SDS011;2752;49.992;8.422;2022-09-24T02:59:42;11.87;;;6.77;;
5458;SDS011;2752;49.992;8.422;2022-09-24T03:02:09;13.70;;;7.60;;
5458;SDS011;2752;49.992;8.422;2022-09-24T03:04:37;15.10;;;7.70;;
5458;SDS011;2752;49.992;8.422;2022-09-24T03:07:04;17.83;;;7.13;;
5458;SDS011;2752;49.992;8.422;2022-09-24T03:09:30;11.27;;;6.80;;
5458;SDS011;2752;49.992;8.422;2022-09-24T03:11:57;20.77;;;8.20;;
5458;SDS011;2752;49.992;8.422;2022-09-24T03:14:25;10.33;;;6.60;;
5458;SDS011;2752;49.992;8.422;2022-09-24T03:16:51;10.77;;;6.80;;
5458;SDS011;2752;49.992;8.422;2022-09-24T03:19:18;13.50;;;7.17;;
5458;SDS011;2752;49.992;8.422;2022-09-24T03:21:46;11.03;;;6.10;;
5458;SDS011;2752;49.992;8.422;2022-09-24T03:24:12;14.43;;;7.20;;
5458;SDS011;2752;49.992;8.422;2022-09-24T03:26:39;10.03;;;6.50;;
5458;SDS011;2752;49.992;8.422;2022-09-24T03:29:07;17.03;;;7.50;;
5458;SDS011;2752;49.992;8.422;2022-09-24T03:31:34;12.50;;;6.80;;
5458;SDS011;2752;49.992;8.422;2022-09-24T03:33:59;14.00;;;6.90;;
5458;SDS011;2752;49.992;8.422;2022-09-24T03:36:26;20.40;;;6.90;;
5458;SDS011;2752;49.992;8.422;2022-09-24T03:38:54;11.70;;;7.30;;
5458;SDS011;2752;49.992;8.422;2022-09-24T03:41:22;10.93;;;6.97;;
5458;SDS011;2752;49.992;8.422;2022-09-24T03:43:49;11.37;;;7.13;;
5458;SDS011;2752;49.992;8.422;2022-09-24T03:46:16;14.93;;;7.83;;
5458;SDS011;2752;49.992;8.422;2022-09-24T03:48:43;14.57;;;7.37;;
5458;SDS011;2752;49.992;8.422;2022-09-24T03:51:11;16.03;;;7.30;;
5458;SDS011;2752;49.992;8.422;2022-09-24T03:53:42;10.70;;;6.70;;
5458;SDS011;2752;49.992;8.422;2022-09-24T03:56:11;11.63;;;7.13;;
5458;SDS011;2752;49.992;8.422;2022-09-24T03:58:38;12.57;;;7.00;;
5458;SDS011;2752;49.992;8.422;2022-09-24T04:01:06;20.13;;;7.47;;
5458;SDS011;2752;49.992;8.422;2022-09-24T04:03:33;11.83;;;6.80;;
5458;SDS011;2752;49.992;8.422;2022-09-24T04:06:00;8.90;;;6.40;;
5458;SDS011;2752;49.992;8.422;2022-09-24T04:08:27;16.03;;;6.07;;
5458;SDS011;2752;49.992;8.422;2022-09-24T04:10:55;13.20;;;6.43;;
5458;SDS011;2752;49.992;8.422;2022-09-24T04:13:23;12.50;;;7.00;;
5458;SDS011;2752;49.992;8.422;2022-09-24T04:15:50;10.40;;;7.00;;
5458;SDS011;2752;49.992;8.422;2022-09-24T04:18:17;8.07;;;5.83;;
5458;SDS011;2752;49.992;8.422;2022-09-24T04:20:44;12.30;;;7.00;;
5458;SDS011;2752;49.992;8.422;2022-09-24T04:23:11;10.03;;;6.40;;
5458;SDS011;2752;49.992;8.422;2022-09-24T04:25:38;14.17;;;6.80;;
5458;SDS011;2752;49.992;8.422;2022-09-24T04:28:06;11.40;;;6.90;;
5458;SDS011;2752;49.992;8.422;2022-09-24T04:30:35;12.50;;;7.33;;
5458;SDS011;2752;49.992;8.422;2022-09-24T04:33:02;12.97;;;6.90;;
5458;SDS011;2752;49.992;8.422;2022-09-24T04:35:29;10.87;;;6.60;;
5458;SDS011;2752;49.992;8.422;2022-09-24T04:37:57;10.03;;;6.53;;
5458;SDS011;2752;49.992;8.422;2022-09-24T04:40:25;11.50;;;6.90;;
5458;SDS011;2752;49.992;8.422;2022-09-24T04:42:52;9.20;;;6.00;;
5458;SDS011;2752;49.992;8.422;2022-09-24T04:45:19;9.10;;;6.40;;
5458;SDS011;2752;49.992;8.422;2022-09-24T04:47:47;9.63;;;6.07;;
5458;SDS011;2752;49.992;8.422;2022-09-24T04:50:16;12.73;;;6.60;;
5458;SDS011;2752;49.992;8.422;2022-09-24T04:52:43;11.40;;;6.70;;
5458;SDS011;2752;49.992;8.422;2022-09-24T04:55:10;9.80;;;6.00;;
5458;SDS011;2752;49.992;8.422;2022-09-24T04:57:36;11.03;;;6.03;;
5458;SDS011;2752;49.992;8.422;2022-09-24T05:00:06;10.73;;;7.03;;
5458;SDS011;2752;49.992;8.422;2022-09-24T05:02:41;10.87;;;6.70;;
5458;SDS011;2752;49.992;8.422;2022-09-24T05:05:10;11.70;;;6.80;;
5458;SDS011;2752;49.992;8.422;2022-09-24T05:07:37;9.57;;;5.87;;
5458;SDS011;2752;49.992;8.422;2022-09-24T05:10:04;11.63;;;6.50;;
5458;SDS011;2752;49.992;8.422;2022-09-24T05:12:31;11.83;;;7.07;;
5458;SDS011;2752;49.992;8.422;2022-09-24T05:14:59;18.63;;;6.83;;
5458;SDS011;2752;49.992;8.422;2022-09-24T05:17:26;9.27;;;6.83;;
5458;SDS011;2752;49.992;8.422;2022-09-24T05:19:52;11.03;;;7.10;;
5458;SDS011;2752;49.992;8.422;2022-09-24T05:22:23;14.97;;;7.27;;
5458;SDS011;2752;49.992;8.422;2022-09-24T05:24:51;23.87;;;8.00;;
5458;SDS011;2752;49.992;8.422;2022-09-24T05:27:18;12.60;;;6.37;;
5458;SDS011;2752;49.992;8.422;2022-09-24T05:29:45;10.70;;;7.20;;
5458;SDS011;2752;49.992;8.422;2022-09-24T05:32:12;13.37;;;8.10;;
5458;SDS011;2752;49.992;8.422;2022-09-24T05:34:41;18.67;;;8.27;;
5458;SDS011;2752;49.992;8.422;2022-09-24T05:37:08;12.27;;;6.73;;
5458;SDS011;2752;49.992;8.422;2022-09-24T05:39:37;13.03;;;7.80;;
5458;SDS011;2752;49.992;8.422;2022-09-24T05:42:04;13.37;;;7.97;;
5458;SDS011;2752;49.992;8.422;2022-09-24T05:44:31;15.90;;;8.43;;
5458;SDS011;2752;49.992;8.422;2022-09-24T05:46:58;11.10;;;8.10;;
5458;SDS011;2752;49.992;8.422;2022-09-24T05:49:25;14.60;;;8.10;;
5458;SDS011;2752;49.992;8.422;2022-09-24T05:51:51;22.13;;;13.10;;
5458;SDS011;2752;49.992;8.422;2022-09-24T05:54:18;12.30;;;8.47;;
5458;SDS011;2752;49.992;8.422;2022-09-24T05:56:46;15.00;;;8.60;;
5458;SDS011;2752;49.992;8.422;2022-09-24T05:59:13;16.73;;;8.60;;
5458;SDS011;2752;49.992;8.422;2022-09-24T06:01:40;15.13;;;7.80;;
5458;SDS011;2752;49.992;8.422;2022-09-24T06:04:08;14.33;;;8.60;;
5458;SDS011;2752;49.992;8.422;2022-09-24T06:06:35;19.10;;;8.30;;
5458;SDS011;2752;49.992;8.422;2022-09-24T06:09:02;14.23;;;8.60;;
5458;SDS011;2752;49.992;8.422;2022-09-24T06:11:29;12.97;;;8.10;;
5458;SDS011;2752;49.992;8.422;2022-09-24T06:14:00;13.97;;;8.33;;
5458;SDS011;2752;49.992;8.422;2022-09-24T06:16:30;13.03;;;8.30;;
5458;SDS011;2752;49.992;8.422;2022-09-24T06:18:57;13.75;;;8.80;;
5458;SDS011;2752;49.992;8.422;2022-09-24T06:21:24;12.47;;;8.50;;
5458;SDS011;2752;49.992;8.422;2022-09-24T06:23:51;10.83;;;7.87;;
5458;SDS011;2752;49.992;8.422;2022-09-24T06:26:18;20.50;;;8.63;;
5458;SDS011;2752;49.992;8.422;2022-09-24T06:28:44;15.30;;;8.63;;
5458;SDS011;2752;49.992;8.422;2022-09-24T06:31:12;14.10;;;8.67;;
5458;SDS011;2752;49.992;8.422;2022-09-24T06:33:39;11.70;;;8.07;;
5458;SDS011;2752;49.992;8.422;2022-09-24T06:36:06;15.20;;;8.13;;
5458;SDS011;2752;49.992;8.422;2022-09-24T06:38:33;16.00;;;8.90;;
5458;SDS011;2752;49.992;8.422;2022-09-24T06:41:01;14.77;;;8.10;;
5458;SDS011;2752;49.992;8.422;2022-09-24T06:43:29;14.20;;;8.10;;
5458;SDS011;2752;49.992;8.422;2022-09-24T06:45:56;17.37;;;9.23;;
5458;SDS011;2752;49.992;8.422;2022-09-24T06:48:25;15.27;;;9.00;;
5458;SDS011;2752;49.992;8.422;2022-09-24T06:50:52;12.40;;;8.70;;
5458;SDS011;2752;49.992;8.422;2022-09-24T06:53:20;23.87;;;10.60;;
5458;SDS011;2752;49.992;8.422;2022-09-24T06:55:46;19.83;;;9.53;;
5458;SDS011;2752;49.992;8.422;2022-09-24T06:58:14;19.33;;;10.40;;
5458;SDS011;2752;49.992;8.422;2022-09-24T07:00:48;13.23;;;9.67;;
5458;SDS011;2752;49.992;8.422;2022-09-24T07:03:16;19.70;;;9.03;;
5458;SDS011;2752;49.992;8.422;2022-09-24T07:05:45;19.13;;;9.97;;
5458;SDS011;2752;49.992;8.422;2022-09-24T07:08:11;14.50;;;10.10;;
5458;SDS011;2752;49.992;8.422;2022-09-24T07:10:40;15.97;;;9.90;;
5458;SDS011;2752;49.992;8.422;2022-09-24T07:13:08;19.87;;;10.27;;
5458;SDS011;2752;49.992;8.422;2022-09-24T07:15:34;16.10;;;8.77;;
5458;SDS011;2752;49.992;8.422;2022-09-24T07:18:01;22.50;;;9.93;;
5458;SDS011;2752;49.992;8.422;2022-09-24T07:20:28;20.20;;;10.37;;
5458;SDS011;2752;49.992;8.422;2022-09-24T07:22:56;20.10;;;10.50;;
5458;SDS011;2752;49.992;8.422;2022-09-24T07:25:22;26.03;;;10.87;;
5458;SDS011;2752;49.992;8.422;2022-09-24T07:27:49;19.60;;;11.07;;
5458;SDS011;2752;49.992;8.422;2022-09-24T07:30:16;17.50;;;10.70;;
5458;SDS011;2752;49.992;8.422;2022-09-24T07:32:42;25.50;;;9.83;;
5458;SDS011;2752;49.992;8.422;2022-09-24T07:35:09;15.53;;;9.50;;
5458;SDS011;2752;49.992;8.422;2022-09-24T07:37:35;22.93;;;10.50;;
5458;SDS011;2752;49.992;8.422;2022-09-24T07:40:04;24.70;;;9.90;;
5458;SDS011;2752;49.992;8.422;2022-09-24T07:42:31;21.43;;;10.40;;
5458;SDS011;2752;49.992;8.422;2022-09-24T07:44:58;20.50;;;10.63;;
5458;SDS011;2752;49.992;8.422;2022-09-24T07:47:25;15.47;;;10.23;;
5458;SDS011;2752;49.992;8.422;2022-09-24T07:49:51;18.00;;;10.87;;
5458;SDS011;2752;49.992;8.422;2022-09-24T07:52:18;23.23;;;12.03;;
5458;SDS011;2752;49.992;8.422;2022-09-24T07:54:45;20.10;;;11.60;;
5458;SDS011;2752;49.992;8.422;2022-09-24T07:57:14;17.03;;;10.80;;
5458;SDS011;2752;49.992;8.422;2022-09-24T07:59:40;18.70;;;11.57;;
5458;SDS011;2752;49.992;8.422;2022-09-24T08:02:12;19.60;;;10.40;;
5458;SDS011;2752;49.992;8.422;2022-09-24T08:04:41;18.10;;;11.43;;
5458;SDS011;2752;49.992;8.422;2022-09-24T08:07:10;24.13;;;12.13;;
5458;SDS011;2752;49.992;8.422;2022-09-24T08:09:38;17.73;;;11.57;;
5458;SDS011;2752;49.992;8.422;2022-09-24T08:12:06;18.60;;;11.00;;
5458;SDS011;2752;49.992;8.422;2022-09-24T08:14:35;25.70;;;11.03;;
5458;SDS011;2752;49.992;8.422;2022-09-24T08:17:02;20.60;;;10.70;;
5458;SDS011;2752;49.992;8.422;2022-09-24T08:19:32;17.17;;;10.83;;
5458;SDS011;2752;49.992;8.422;2022-09-24T08:21:58;19.03;;;11.30;;
5458;SDS011;2752;49.992;8.422;2022-09-24T08:24:26;19.80;;;11.93;;
5458;SDS011;2752;49.992;8.422;2022-09-24T08:26:52;20.67;;;10.83;;
5458;SDS011;2752;49.992;8.422;2022-09-24T08:29:19;28.60;;;12.73;;
5458;SDS011;2752;49.992;8.422;2022-09-24T08:31:47;23.23;;;11.90;;
5458;SDS011;2752;49.992;8.422;2022-09-24T08:34:14;17.70;;;12.17;;
5458;SDS011;2752;49.992;8.422;2022-09-24T08:36:40;24.80;;;12.43;;
5458;SDS011;2752;49.992;8.422;2022-09-24T08:39:07;19.10;;;11.33;;
5458;SDS011;2752;49.992;8.422;2022-09-24T08:41:41;24.73;;;12.27;;
5458;SDS011;2752;49.992;8.422;2022-09-24T08:44:16;23.63;;;12.50;;
5458;SDS011;2752;49.992;8.422;2022-09-24T08:47:04;22.30;;;13.17;;
5458;SDS011;2752;49.992;8.422;2022-09-24T08:49:54;22.03;;;11.50;;
5458;SDS011;2752;49.992;8.422;2022-09-24T08:52:29;16.30;;;11.80;;
5458;SDS011;2752;49.992;8.422;2022-09-24T08:55:04;20.10;;;11.73;;
5458;SDS011;2752;49.992;8.422;2022-09-24T08:57:37;28.03;;;11.67;;
5458;SDS011;2752;49.992;8.422;2022-09-24T09:00:12;20.87;;;11.60;;
5458;SDS011;2752;49.992;8.422;2022-09-24T09:02:42;18.17;;;11.90;;
5458;SDS011;2752;49.992;8.422;2022-09-24T09:05:19;23.70;;;12.60;;
5458;SDS011;2752;49.992;8.422;2022-09-24T09:07:54;20.73;;;12.57;;
5458;SDS011;2752;49.992;8.422;2022-09-24T09:10:27;18.97;;;12.07;;
5458;SDS011;2752;49.992;8.422;2022-09-24T09:12:57;17.77;;;11.70;;
5458;SDS011;2752;49.992;8.422;2022-09-24T09:15:30;22.10;;;13.50;;
5458;SDS011;2752;49.992;8.422;2022-09-24T09:18:02;26.57;;;10.00;;
5458;SDS011;2752;49.992;8.422;2022-09-24T09:20:37;20.23;;;13.03;;
5458;SDS011;2752;49.992;8.422;2022-09-24T09:23:10;23.83;;;11.13;;
5458;SDS011;2752;49.992;8.422;2022-09-24T09:25:40;18.43;;;10.93;;
5458;SDS011;2752;49.992;8.422;2022-09-24T09:28:11;23.17;;;12.17;;
5458;SDS011;2752;49.992;8.422;2022-09-24T09:30:42;29.77;;;11.40;;
5458;SDS011;2752;49.992;8.422;2022-09-24T09:33:26;21.30;;;12.80;;
5458;SDS011;2752;49.992;8.422;2022-09-24T09:36:08;18.93;;;11.87;;
5458;SDS011;2752;49.992;8.422;2022-09-24T09:38:57;24.77;;;13.60;;
5458;SDS011;2752;49.992;8.422;2022-09-24T09:41:30;27.47;;;14.37;;
5458;SDS011;2752;49.992;8.422;2022-09-24T09:44:09;21.03;;;13.23;;
5458;SDS011;2752;49.992;8.422;2022-09-24T09:46:40;27.60;;;13.50;;
5458;SDS011;2752;49.992;8.422;2022-09-24T09:49:13;24.83;;;14.27;;
5458;SDS011;2752;49.992;8.422;2022-09-24T09:51:41;26.00;;;13.30;;
5458;SDS011;2752;49.992;8.422;2022-09-24T09:54:11;20.70;;;13.03;;
5458;SDS011;2752;49.992;8.422;2022-09-24T09:56:41;20.80;;;13.47;;
5458;SDS011;2752;49.992;8.422;2022-09-24T09:59:15;31.37;;;13.27;;
5458;SDS011;2752;49.992;8.422;2022-09-24T10:01:44;24.83;;;12.90;;
5458;SDS011;2752;49.992;8.422;2022-09-24T10:04:22;21.87;;;14.13;;
5458;SDS011;2752;49.992;8.422;2022-09-24T10:07:01;24.80;;;14.00;;
5458;SDS011;2752;49.992;8.422;2022-09-24T10:09:29;24.90;;;13.83;;
5458;SDS011;2752;49.992;8.422;2022-09-24T10:12:04;27.10;;;14.20;;
5458;SDS011;2752;49.992;8.422;2022-09-24T10:14:32;27.23;;;13.93;;
5458;SDS011;2752;49.992;8.422;2022-09-24T10:16:59;22.37;;;13.00;;
5458;SDS011;2752;49.992;8.422;2022-09-24T10:19:31;19.70;;;12.93;;
5458;SDS011;2752;49.992;8.422;2022-09-24T10:22:06;30.93;;;15.83;;
5458;SDS011;2752;49.992;8.422;2022-09-24T10:24:39;22.13;;;12.07;;
5458;SDS011;2752;49.992;8.422;2022-09-24T10:27:11;20.70;;;11.20;;
5458;SDS011;2752;49.992;8.422;2022-09-24T10:29:39;16.53;;;10.57;;
5458;SDS011;2752;49.992;8.422;2022-09-24T10:32:24;48.63;;;20.90;;
5458;SDS011;2752;49.992;8.422;2022-09-24T10:34:55;20.87;;;12.03;;
5458;SDS011;2752;49.992;8.422;2022-09-24T10:37:23;21.33;;;11.07;;
5458;SDS011;2752;49.992;8.422;2022-09-24T10:39:57;20.73;;;11.63;;
5458;SDS011;2752;49.992;8.422;2022-09-24T10:42:25;22.23;;;10.90;;
5458;SDS011;2752;49.992;8.422;2022-09-24T10:44:53;19.73;;;11.90;;
5458;SDS011;2752;49.992;8.422;2022-09-24T10:47:25;15.27;;;10.60;;
5458;SDS011;2752;49.992;8.422;2022-09-24T10:50:02;15.73;;;9.90;;
5458;SDS011;2752;49.992;8.422;2022-09-24T10:52:43;27.23;;;10.90;;
5458;SDS011;2752;49.992;8.422;2022-09-24T10:55:18;24.73;;;12.37;;
5458;SDS011;2752;49.992;8.422;2022-09-24T10:57:56;23.90;;;14.20;;
5458;SDS011;2752;49.992;8.422;2022-09-24T11:00:28;17.83;;;11.10;;
5458;SDS011;2752;49.992;8.422;2022-09-24T11:06:14;25.70;;;12.80;;
5458;SDS011;2752;49.992;8.422;2022-09-24T11:08:50;18.00;;;11.27;;
5458;SDS011;2752;49.992;8.422;2022-09-24T11:11:31;20.97;;;12.90;;
5458;SDS011;2752;49.992;8.422;2022-09-24T11:14:10;19.80;;;12.50;;
5458;SDS011;2752;49.992;8.422;2022-09-24T11:16:53;17.40;;;11.10;;
5458;SDS011;2752;49.992;8.422;2022-09-24T11:22:20;19.40;;;11.20;;
5458;SDS011;2752;49.992;8.422;2022-09-24T11:25:02;16.03;;;9.83;;
5458;SDS011;2752;49.992;8.422;2022-09-24T11:27:50;26.30;;;10.00;;
5458;SDS011;2752;49.992;8.422;2022-09-24T11:30:26;18.10;;;8.77;;
5458;SDS011;2752;49.992;8.422;2022-09-24T11:33:01;13.00;;;7.40;;
5458;SDS011;2752;49.992;8.422;2022-09-24T11:35:50;16.90;;;6.47;;
5458;SDS011;2752;49.992;8.422;2022-09-24T11:38:42;18.00;;;6.27;;
5458;SDS011;2752;49.992;8.422;2022-09-24T11:41:24;8.50;;;6.20;;
5458;SDS011;2752;49.992;8.422;2022-09-24T11:44:04;15.70;;;7.03;;
5458;SDS011;2752;49.992;8.422;2022-09-24T11:46:45;13.30;;;5.70;;
5458;SDS011;2752;49.992;8.422;2022-09-24T11:49:24;8.70;;;5.60;;
5458;SDS011;2752;49.992;8.422;2022-09-24T11:52:02;16.30;;;5.90;;
5458;SDS011;2752;49.992;8.422;2022-09-24T11:54:35;10.27;;;5.43;;
5458;SDS011;2752;49.992;8.422;2022-09-24T11:57:09;15.50;;;5.33;;
5458;SDS011;2752;49.992;8.422;2022-09-24T11:59:42;13.70;;;6.13;;
5458;SDS011;2752;49.992;8.422;2022-09-24T12:02:13;9.47;;;5.53;;
5458;SDS011;2752;49.992;8.422;2022-09-24T12:04:48;8.90;;;4.60;;
5458;SDS011;2752;49.992;8.422;2022-09-24T12:07:21;10.90;;;4.50;;
5458;SDS011;2752;49.992;8.422;2022-09-24T12:09:54;21.10;;;5.77;;
5458;SDS011;2752;49.992;8.422;2022-09-24T12:12:25;7.57;;;4.30;;
5458;SDS011;2752;49.992;8.422;2022-09-24T12:14:56;7.77;;;3.93;;
5458;SDS011;2752;49.992;8.422;2022-09-24T12:17:29;12.40;;;5.30;;
5458;SDS011;2752;49.992;8.422;2022-09-24T12:20:01;30.27;;;9.70;;
5458;SDS011;2752;49.992;8.422;2022-09-24T12:22:33;17.93;;;5.77;;
5458;SDS011;2752;49.992;8.422;2022-09-24T12:25:09;11.07;;;4.60;;
5458;SDS011;2752;49.992;8.422;2022-09-24T12:27:40;7.80;;;4.50;;
5458;SDS011;2752;49.992;8.422;2022-09-24T12:30:14;6.20;;;4.40;;
5458;SDS011;2752;49.992;8.422;2022-09-24T12:33:08;8.23;;;4.67;;
5458;SDS011;2752;49.992;8.422;2022-09-24T12:35:45;5.97;;;4.20;;
5458;SDS011;2752;49.992;8.422;2022-09-24T12:38:29;7.43;;;4.77;;
5458;SDS011;2752;49.992;8.422;2022-09-24T12:41:13;11.60;;;4.70;;
5458;SDS011;2752;49.992;8.422;2022-09-24T12:43:46;10.80;;;4.30;;
5458;SDS011;2752;49.992;8.422;2022-09-24T12:46:18;8.07;;;4.60;;
5458;SDS011;2752;49.992;8.422;2022-09-24T12:48:45;8.50;;;5.00;;
5458;SDS011;2752;49.992;8.422;2022-09-24T12:51:14;7.73;;;5.00;;
5458;SDS011;2752;49.992;8.422;2022-09-24T12:53:53;5.80;;;4.07;;
5458;SDS011;2752;49.992;8.422;2022-09-24T12:56:26;14.30;;;6.50;;
5458;SDS011;2752;49.992;8.422;2022-09-24T12:58:55;7.93;;;5.27;;
5458;SDS011;2752;49.992;8.422;2022-09-24T13:01:26;8.83;;;5.20;;
5458;SDS011;2752;49.992;8.422;2022-09-24T13:04:05;9.73;;;5.30;;
5458;SDS011;2752;49.992;8.422;2022-09-24T13:06:51;14.70;;;4.80;;
5458;SDS011;2752;49.992;8.422;2022-09-24T13:09:23;7.27;;;3.73;;
5458;SDS011;2752;49.992;8.422;2022-09-24T13:12:04;12.13;;;4.27;;
5458;SDS011;2752;49.992;8.422;2022-09-24T13:14:46;8.43;;;4.40;;
5458;SDS011;2752;49.992;8.422;2022-09-24T13:17:16;5.80;;;3.93;;
5458;SDS011;2752;49.992;8.422;2022-09-24T13:19:43;11.20;;;5.40;;
5458;SDS011;2752;49.992;8.422;2022-09-24T13:22:20;13.70;;;4.43;;
5458;SDS011;2752;49.992;8.422;2022-09-24T13:24:50;6.43;;;4.60;;
5458;SDS011;2752;49.992;8.422;2022-09-24T13:27:34;7.17;;;3.90;;
5458;SDS011;2752;49.992;8.422;2022-09-24T13:30:03;8.93;;;3.93;;
5458;SDS011;2752;49.992;8.422;2022-09-24T13:32:41;9.80;;;4.30;;
5458;SDS011;2752;49.992;8.422;2022-09-24T13:35:13;8.03;;;5.00;;
5458;SDS011;2752;49.992;8.422;2022-09-24T13:37:46;10.27;;;4.50;;
5458;SDS011;2752;49.992;8.422;2022-09-24T13:40:18;6.93;;;4.53;;
5458;SDS011;2752;49.992;8.422;2022-09-24T13:42:52;6.27;;;3.83;;
5458;SDS011;2752;49.992;8.422;2022-09-24T13:45:24;6.00;;;4.10;;
5458;SDS011;2752;49.992;8.422;2022-09-24T13:47:52;6.27;;;4.67;;
5458;SDS011;2752;49.992;8.422;2022-09-24T13:50:23;6.53;;;4.40;;
5458;SDS011;2752;49.992;8.422;2022-09-24T13:52:52;8.00;;;4.73;;
5458;SDS011;2752;49.992;8.422;2022-09-24T13:55:22;10.50;;;5.63;;
5458;SDS011;2752;49.992;8.422;2022-09-24T13:57:52;13.23;;;6.57;;
5458;SDS011;2752;49.992;8.422;2022-09-24T14:00:20;10.70;;;5.77;;
5458;SDS011;2752;49.992;8.422;2022-09-24T14:02:51;10.00;;;5.50;;
5458;SDS011;2752;49.992;8.422;2022-09-24T14:05:20;8.67;;;5.10;;
5458;SDS011;2752;49.992;8.422;2022-09-24T14:07:51;18.63;;;5.20;;
5458;SDS011;2752;49.992;8.422;2022-09-24T14:10:23;12.47;;;5.47;;
5458;SDS011;2752;49.992;8.422;2022-09-24T14:13:01;11.57;;;7.10;;
5458;SDS011;2752;49.992;8.422;2022-09-24T14:15:35;22.27;;;6.43;;
5458;SDS011;2752;49.992;8.422;2022-09-24T14:18:02;11.33;;;6.43;;
5458;SDS011;2752;49.992;8.422;2022-09-24T14:20:29;8.03;;;5.30;;
5458;SDS011;2752;49.992;8.422;2022-09-24T14:23:00;11.73;;;6.47;;
5458;SDS011;2752;49.992;8.422;2022-09-24T14:25:30;14.10;;;6.97;;
5458;SDS011;2752;49.992;8.422;2022-09-24T14:28:01;15.43;;;6.57;;
5458;SDS011;2752;49.992;8.422;2022-09-24T14:30:29;11.60;;;6.67;;
5458;SDS011;2752;49.992;8.422;2022-09-24T14:32:59;12.67;;;6.47;;
5458;SDS011;2752;49.992;8.422;2022-09-24T14:35:30;10.77;;;6.70;;
5458;SDS011;2752;49.992;8.422;2022-09-24T14:37:59;14.43;;;6.93;;
5458;SDS011;2752;49.992;8.422;2022-09-24T14:40:35;21.27;;;7.40;;
5458;SDS011;2752;49.992;8.422;2022-09-24T14:43:10;13.23;;;6.70;;
5458;SDS011;2752;49.992;8.422;2022-09-24T14:45:41;13.97;;;6.90;;
5458;SDS011;2752;49.992;8.422;2022-09-24T14:48:16;15.37;;;7.03;;
5458;SDS011;2752;49.992;8.422;2022-09-24T14:50:45;13.37;;;6.53;;
5458;SDS011;2752;49.992;8.422;2022-09-24T14:53:12;9.97;;;6.27;;
5458;SDS011;2752;49.992;8.422;2022-09-24T14:55:45;12.77;;;7.40;;
5458;SDS011;2752;49.992;8.422;2022-09-24T15:01:11;10.10;;;6.40;;
5458;SDS011;2752;49.992;8.422;2022-09-24T15:03:40;20.93;;;7.07;;
5458;SDS011;2752;49.992;8.422;2022-09-24T15:06:15;19.37;;;6.77;;
5458;SDS011;2752;49.992;8.422;2022-09-24T15:08:50;19.70;;;7.20;;
5458;SDS011;2752;49.992;8.422;2022-09-24T15:11:23;20.53;;;8.20;;
5458;SDS011;2752;49.992;8.422;2022-09-24T15:13:57;12.73;;;7.13;;
5458;SDS011;2752;49.992;8.422;2022-09-24T15:16:27;11.63;;;7.57;;
5458;SDS011;2752;49.992;8.422;2022-09-24T15:18:57;13.37;;;7.63;;
5458;SDS011;2752;49.992;8.422;2022-09-24T15:21:35;15.50;;;7.33;;
5458;SDS011;2752;49.992;8.422;2022-09-24T15:24:02;19.60;;;6.77;;
5458;SDS011;2752;49.992;8.422;2022-09-24T15:26:30;17.43;;;7.40;;
5458;SDS011;2752;49.992;8.422;2022-09-24T15:28:59;13.73;;;6.07;;
5458;SDS011;2752;49.992;8.422;2022-09-24T15:31:27;14.10;;;6.93;;
5458;SDS011;2752;49.992;8.422;2022-09-24T15:33:54;11.67;;;6.30;;
5458;SDS011;2752;49.992;8.422;2022-09-24T15:36:21;7.57;;;5.43;;